Hlavní strana
METAR-TAF:

METAR-TAF

Letiště :

Almagro, Španělsko

zeměpisná šířka: 38-57-11N, zeměpisná délka: 3-44-29W, výška: 629 m

METAR: chybějící

Čas: 23:31 (21:31 UTC)

Předpověď počasí

Zpráva byla vytvořena před 4 hodinami a 31 minutami, v 17:00 UTC
Předpověď platná od 04 v 18 UTC do 05 v 03 UTC
Jižní vítr 7 kt
Viditelnost 10 km a více
Žádná oblačnost pod 1500 m, nevyskytují se cumulonimby.
Pravděpodobnost 30% :
Dočasný
od 04 v 26 UTC do 05 v 03 UTC
mrholení

TAF: LEAO 041700Z 0418/0503 18007KT CAVOK PROB30 TEMPO 0426/0503 DZ

Stav a předpovědi počasí z více než 4 000 letišť (zprávy METAR a TAF).

Červené a žluté tečky na mapě představují dostupné meteorologické stanice.

Když kurzor umístíte na tečku, zobrazí se název stanice.

Pak kliknutím zobrazíte stav a předpověď počasí.

Chcete-li změnit mapu, kliknutím na zelené tlačítko se znaménkem +mapu přiblížíte, kliknutím na zelené tlačítko se znaménkem – mapu oddálíte a kliknutím na zelené šipky přejdete na sousední mapy.


METAR-TAF: